createdAt,value
2022-10-04T00:02:03.893Z,95619.92
2022-10-04T00:04:43.843Z,95618.84
2022-10-04T00:07:13.519Z,95620.11
2022-10-04T00:09:57.872Z,95620.63
2022-10-04T00:12:37.491Z,95624.40
2022-10-04T00:15:18.426Z,95627.21
2022-10-04T00:18:12.150Z,95633.17
2022-10-04T00:20:50.051Z,95628.34
2022-10-04T00:23:22.751Z,95629.17
2022-10-04T00:26:00.438Z,95628.77
2022-10-04T00:28:41.104Z,95622.33
2022-10-04T00:31:24.613Z,95624.98
2022-10-04T00:33:51.687Z,95625.48
2022-10-04T00:36:24.373Z,95624.62
2022-10-04T00:39:06.306Z,95625.13
2022-10-04T00:41:48.721Z,95620.98
2022-10-04T00:44:49.621Z,95618.91
2022-10-04T00:47:34.515Z,95618.73
2022-10-04T00:50:10.956Z,95621.05
2022-10-04T00:52:44.450Z,95621.88
2022-10-04T00:55:21.637Z,95616.52
2022-10-04T00:57:50.868Z,95613.81
2022-10-04T01:00:19.011Z,95610.50
2022-10-04T01:02:58.357Z,95609.04
2022-10-04T01:05:32.342Z,95606.61
2022-10-04T01:08:07.568Z,95602.56
2022-10-04T01:10:42.254Z,95608.85
2022-10-04T01:13:12.454Z,95604.45
2022-10-04T01:15:45.095Z,95601.00
2022-10-04T01:18:14.458Z,95601.49
2022-10-04T01:20:50.704Z,95600.98
2022-10-04T01:23:51.525Z,95613.63
2022-10-04T01:26:31.708Z,95608.83
2022-10-04T01:29:04.690Z,95612.95
2022-10-04T01:31:35.272Z,95610.77
2022-10-04T01:34:04.757Z,95610.40
2022-10-04T01:36:32.911Z,95615.14
2022-10-04T01:39:00.075Z,95614.27
2022-10-04T01:41:52.711Z,95611.27
2022-10-04T01:44:45.402Z,95614.58
2022-10-04T01:47:24.117Z,95617.77
2022-10-04T01:49:54.948Z,95618.65
2022-10-04T01:52:28.929Z,95623.05
2022-10-04T01:55:08.456Z,95622.61
2022-10-04T01:57:40.825Z,95623.95
2022-10-04T02:00:11.872Z,95626.90
2022-10-04T02:02:50.920Z,95630.02
2022-10-04T02:05:26.979Z,95629.45
2022-10-04T02:07:55.777Z,95628.30
2022-10-04T02:10:25.741Z,95623.14
2022-10-04T02:12:54.202Z,95621.13
2022-10-04T02:15:26.211Z,95622.45
2022-10-04T02:17:55.473Z,95616.48
2022-10-04T02:20:26.068Z,95621.16
2022-10-04T02:23:02.745Z,95618.27
2022-10-04T02:25:30.735Z,95623.67
2022-10-04T02:27:58.133Z,95625.53
2022-10-04T02:30:25.067Z,95629.32
2022-10-04T02:32:57.199Z,95632.70
2022-10-04T02:35:26.979Z,95636.48
2022-10-04T02:38:07.454Z,95636.60
2022-10-04T02:40:41.212Z,95637.34
2022-10-04T02:43:20.712Z,95640.08
2022-10-04T02:46:09.054Z,95640.92
2022-10-04T02:48:55.832Z,95634.27
2022-10-04T02:51:30.817Z,95638.20
2022-10-04T02:54:19.156Z,95641.94
2022-10-04T02:56:52.705Z,95643.23
2022-10-04T02:59:20.958Z,95639.77
2022-10-04T03:01:59.832Z,95638.73
2022-10-04T03:04:39.618Z,95639.55
2022-10-04T03:07:08.708Z,95634.27
2022-10-04T03:09:37.618Z,95630.23
2022-10-04T03:12:05.679Z,95628.84
2022-10-04T03:14:33.645Z,95633.60
2022-10-04T03:17:03.541Z,95639.70
2022-10-04T03:19:31.847Z,95647.04
2022-10-04T03:22:07.447Z,95648.09
2022-10-04T03:24:42.642Z,95643.78
2022-10-04T03:27:16.744Z,95638.89
2022-10-04T03:29:43.912Z,95643.59
2022-10-04T03:32:15.185Z,95640.64
2022-10-04T03:35:05.551Z,95643.17
2022-10-04T03:37:37.320Z,95644.11
2022-10-04T03:40:09.170Z,95645.83
2022-10-04T03:42:38.574Z,95645.76
2022-10-04T03:45:15.250Z,95648.33
2022-10-04T03:47:48.010Z,95649.06
2022-10-04T03:50:20.045Z,95649.17
2022-10-04T03:52:54.132Z,95648.74
2022-10-04T03:55:25.054Z,95651.84
2022-10-04T03:57:52.198Z,95646.06
2022-10-04T04:00:19.254Z,95642.55
2022-10-04T04:03:04.737Z,95641.44
2022-10-04T04:05:35.269Z,95643.19
2022-10-04T04:08:26.375Z,95642.05
2022-10-04T04:10:58.064Z,95644.50
2022-10-04T04:13:48.742Z,95651.87
2022-10-04T04:16:15.832Z,95649.86
2022-10-04T04:18:45.700Z,95647.28
2022-10-04T04:21:18.502Z,95647.24
2022-10-04T04:23:50.655Z,95644.91
2022-10-04T04:26:17.407Z,95647.86
2022-10-04T04:28:48.871Z,95651.60
2022-10-04T04:31:26.361Z,95648.10
2022-10-04T04:34:02.138Z,95652.77
2022-10-04T04:36:42.538Z,95653.64
2022-10-04T04:39:32.675Z,95657.98
2022-10-04T04:42:10.669Z,95665.02
2022-10-04T04:44:46.915Z,95668.52
2022-10-04T04:47:44.205Z,95668.53
2022-10-04T04:50:15.463Z,95669.73
2022-10-04T04:53:08.392Z,95672.79
2022-10-04T04:56:02.268Z,95677.16
2022-10-04T04:58:38.356Z,95674.84
2022-10-04T05:01:08.613Z,95675.83
2022-10-04T05:03:35.706Z,95679.14
2022-10-04T05:06:04.277Z,95681.02
2022-10-04T05:08:40.170Z,95682.52
2022-10-04T05:11:08.220Z,95680.65
2022-10-04T05:13:47.859Z,95684.19
2022-10-04T05:16:20.557Z,95687.98
2022-10-04T05:18:50.873Z,95691.55
2022-10-04T05:21:29.607Z,95694.13
2022-10-04T05:23:58.686Z,95693.99
2022-10-04T05:26:30.312Z,95696.02
2022-10-04T05:29:06.106Z,95702.19
2022-10-04T05:31:44.010Z,95704.86
2022-10-04T05:34:39.620Z,95706.50
2022-10-04T05:37:25.412Z,95712.05
2022-10-04T05:39:54.923Z,95715.59
2022-10-04T05:42:29.755Z,95718.27
2022-10-04T05:44:57.954Z,95721.70
2022-10-04T05:47:30.686Z,95729.70
2022-10-04T05:50:00.617Z,95733.40
2022-10-04T05:52:32.629Z,95734.86
2022-10-04T05:55:23.610Z,95738.86
2022-10-04T05:57:50.213Z,95741.65
2022-10-04T06:00:23.129Z,95741.98
2022-10-04T06:02:52.528Z,95744.69
2022-10-04T06:05:38.636Z,95749.27
2022-10-04T06:08:16.497Z,95752.54
2022-10-04T06:11:03.342Z,95753.96
2022-10-04T06:14:04.232Z,95754.48
2022-10-04T06:16:43.738Z,95756.34
2022-10-04T06:19:32.697Z,95760.63
2022-10-04T06:22:15.202Z,95764.27
2022-10-04T06:24:46.425Z,95762.09
2022-10-04T06:27:28.655Z,95767.37
2022-10-04T06:30:12.044Z,95763.48
2022-10-04T06:32:57.474Z,95765.62
2022-10-04T06:35:42.662Z,95772.29
2022-10-04T06:38:11.944Z,95771.52
2022-10-04T06:40:47.499Z,95777.21
2022-10-04T06:43:53.312Z,95776.65
2022-10-04T06:46:37.821Z,95778.98
2022-10-04T06:49:23.748Z,95784.33
2022-10-04T06:51:56.595Z,95787.48
2022-10-04T06:54:38.977Z,95791.90
2022-10-04T06:57:35.853Z,95790.96
2022-10-04T07:00:08.874Z,95795.30
2022-10-04T07:02:40.119Z,95799.98
2022-10-04T07:05:29.969Z,95804.05
2022-10-04T07:08:41.253Z,95804.78
2022-10-04T07:11:14.155Z,95805.50
2022-10-04T07:13:53.172Z,95812.95
2022-10-04T07:16:31.698Z,95811.55
2022-10-04T07:19:19.865Z,95810.13
2022-10-04T07:22:11.867Z,95810.48
2022-10-04T07:24:50.694Z,95814.77
2022-10-04T07:27:27.989Z,95820.54
2022-10-04T07:29:57.758Z,95829.10
2022-10-04T07:32:42.774Z,95827.20
2022-10-04T07:35:09.519Z,95828.05
2022-10-04T07:38:03.190Z,95831.13
2022-10-04T07:40:36.217Z,95832.49
2022-10-04T07:43:12.948Z,95834.35
2022-10-04T07:45:41.669Z,95835.50
2022-10-04T07:48:09.205Z,95838.13
2022-10-04T07:50:45.479Z,95839.95
2022-10-04T07:53:18.663Z,95835.52
2022-10-04T07:56:04.331Z,95839.33
2022-10-04T07:58:56.079Z,95839.84
2022-10-04T08:01:43.911Z,95840.22
2022-10-04T08:04:37.705Z,95837.51
2022-10-04T08:07:42.671Z,95840.17
2022-10-04T08:10:35.006Z,95840.49
2022-10-04T08:13:22.734Z,95842.36
2022-10-04T08:15:52.664Z,95853.70
2022-10-04T08:19:08.143Z,95857.14
2022-10-04T08:21:48.524Z,95865.71
2022-10-04T08:24:28.422Z,95865.94
2022-10-04T08:27:21.584Z,95867.27
2022-10-04T08:30:06.959Z,95862.48
2022-10-04T08:33:11.949Z,95864.79
2022-10-04T08:35:45.671Z,95872.44
2022-10-04T08:38:22.497Z,95870.91
2022-10-04T08:41:24.967Z,95870.70
2022-10-04T08:44:19.705Z,95872.48
2022-10-04T08:46:59.209Z,95874.69
2022-10-04T08:49:58.004Z,95877.42
2022-10-04T08:52:36.975Z,95878.88
2022-10-04T08:55:22.840Z,95883.05
2022-10-04T08:58:08.405Z,95882.45
2022-10-04T09:00:48.555Z,95881.12
2022-10-04T09:03:33.818Z,95882.64
2022-10-04T09:06:06.721Z,95886.16
2022-10-04T09:09:11.247Z,95885.91
2022-10-04T09:11:58.059Z,95881.28
2022-10-04T09:14:57.358Z,95881.49
2022-10-04T09:17:46.537Z,95885.44
2022-10-04T09:20:37.199Z,95892.20
2022-10-04T09:23:31.337Z,95895.47
2022-10-04T09:26:21.590Z,95887.77
2022-10-04T09:29:16.217Z,95891.01
2022-10-04T09:31:43.081Z,95888.79
2022-10-04T09:34:41.863Z,95887.23
2022-10-04T09:37:30.636Z,95884.86
2022-10-04T09:40:35.550Z,95887.30
2022-10-04T09:43:43.970Z,95893.11
2022-10-04T09:46:56.668Z,95896.11
2022-10-04T09:49:55.333Z,95898.36
2022-10-04T09:52:25.198Z,95904.58
2022-10-04T09:55:04.743Z,95905.08
2022-10-04T09:57:38.637Z,95910.38
2022-10-04T10:00:08.310Z,95914.52
2022-10-04T10:02:57.101Z,95922.09
2022-10-04T10:06:02.872Z,95930.48
2022-10-04T10:09:00.854Z,95939.64
2022-10-04T10:12:10.195Z,95945.97
2022-10-04T10:15:03.350Z,95944.90
2022-10-04T10:17:47.299Z,95948.09
2022-10-04T10:20:30.481Z,95949.07
2022-10-04T10:23:03.415Z,95952.58
2022-10-04T10:25:33.029Z,95959.51
2022-10-04T10:28:18.765Z,95956.36
2022-10-04T10:31:20.025Z,95955.14
2022-10-04T10:34:15.074Z,95953.02
2022-10-04T10:36:42.307Z,95956.20
2022-10-04T10:39:15.432Z,95961.27
2022-10-04T10:42:03.151Z,95958.23
2022-10-04T10:44:48.385Z,95963.24
2022-10-04T10:47:43.576Z,95964.65
2022-10-04T10:50:29.239Z,95962.45
2022-10-04T10:53:29.751Z,95959.29
2022-10-04T10:56:23.929Z,95958.43
2022-10-04T10:59:28.191Z,95958.15
2022-10-04T11:02:14.500Z,95953.13
2022-10-04T11:05:30.301Z,95952.14
2022-10-04T11:08:29.558Z,95954.48
2022-10-04T11:11:18.041Z,95952.48
2022-10-04T11:14:11.269Z,95956.79
2022-10-04T11:16:38.188Z,95955.08
2022-10-04T11:19:30.091Z,95959.38
2022-10-04T11:22:38.238Z,95959.38
2022-10-04T11:25:11.459Z,95960.60
2022-10-04T11:27:58.409Z,95959.47
2022-10-04T11:30:30.465Z,95959.05
2022-10-04T11:33:06.812Z,95960.38
2022-10-04T11:36:09.266Z,95960.92
2022-10-04T11:39:02.160Z,95955.79
2022-10-04T11:41:41.427Z,95954.65
2022-10-04T11:44:24.219Z,95946.52
2022-10-04T11:46:54.905Z,95945.58
2022-10-04T11:49:27.774Z,95949.30
2022-10-04T11:52:04.201Z,95958.69
2022-10-04T11:54:57.971Z,95966.27
2022-10-04T11:57:42.628Z,95965.38
2022-10-04T12:00:20.114Z,95963.15
2022-10-04T12:02:56.185Z,95966.12
2022-10-04T12:05:32.490Z,95961.11
2022-10-04T12:08:18.100Z,95965.52
2022-10-04T12:11:18.547Z,95962.15
2022-10-04T12:14:24.222Z,95964.01
2022-10-04T12:17:11.249Z,95969.95
2022-10-04T12:20:15.179Z,95968.33
2022-10-04T12:23:30.578Z,95972.64
2022-10-04T12:26:07.730Z,95973.59
2022-10-04T12:28:41.867Z,95971.46
2022-10-04T12:31:36.669Z,95968.74
2022-10-04T12:34:14.174Z,95972.00
2022-10-04T12:36:59.719Z,95975.25
2022-10-04T12:40:13.077Z,95968.13
2022-10-04T12:43:08.263Z,95969.08
2022-10-04T12:45:41.149Z,95974.86
2022-10-04T12:48:14.974Z,95968.98
2022-10-04T12:51:00.040Z,95969.09
2022-10-04T12:53:34.249Z,95969.40
2022-10-04T12:56:27.826Z,95975.52
2022-10-04T12:59:20.258Z,95974.15
2022-10-04T13:01:56.190Z,95976.67
2022-10-04T13:04:28.737Z,95979.58
2022-10-04T13:07:15.721Z,95977.40
2022-10-04T13:10:05.472Z,95985.57
2022-10-04T13:13:01.834Z,95987.91
2022-10-04T13:18:53.126Z,95986.92
2022-10-04T13:21:38.758Z,95991.17
2022-10-04T13:24:25.071Z,95995.85
2022-10-04T13:27:00.922Z,95999.52
2022-10-04T13:29:33.706Z,96002.11
2022-10-04T13:32:14.826Z,96004.94
2022-10-04T13:35:24.222Z,96005.74
2022-10-04T13:38:09.505Z,96009.91
2022-10-04T13:40:49.252Z,96011.84
2022-10-04T13:43:49.486Z,96008.36
2022-10-04T13:46:43.357Z,96010.36
2022-10-04T13:49:10.102Z,96014.63
2022-10-04T13:52:27.116Z,96016.25
2022-10-04T13:55:52.890Z,96014.53
2022-10-04T13:58:31.909Z,96013.98
2022-10-04T14:01:02.050Z,96014.98
2022-10-04T14:03:55.161Z,96018.15
2022-10-04T14:06:59.624Z,96023.54
2022-10-04T14:09:55.791Z,96022.80
2022-10-04T14:12:25.871Z,96025.95
2022-10-04T14:15:17.363Z,96029.48
2022-10-04T14:18:12.573Z,96033.37
2022-10-04T14:21:18.923Z,96036.95
2022-10-04T14:24:14.600Z,96040.79
2022-10-04T14:27:05.473Z,96039.73
2022-10-04T14:30:07.743Z,96039.80
2022-10-04T14:32:59.681Z,96045.52
2022-10-04T14:35:48.337Z,96045.56
2022-10-04T14:38:15.523Z,96049.33
2022-10-04T14:41:29.751Z,96052.41
2022-10-04T14:44:32.225Z,96054.73
2022-10-04T14:47:28.408Z,96056.75
2022-10-04T14:50:14.153Z,96058.77
2022-10-04T14:52:43.652Z,96059.10
2022-10-04T14:55:48.795Z,96067.82
2022-10-04T14:58:29.559Z,96067.84
2022-10-04T15:01:20.027Z,96072.10
2022-10-04T15:03:49.982Z,96074.58
2022-10-04T15:06:57.275Z,96077.94
2022-10-04T15:09:36.306Z,96077.83
2022-10-04T15:12:36.326Z,96080.27
2022-10-04T15:15:13.927Z,96079.04
2022-10-04T15:17:54.751Z,96084.45
2022-10-04T15:20:33.311Z,96085.64
2022-10-04T15:23:12.962Z,96083.70
2022-10-04T15:26:13.497Z,96087.80
2022-10-04T15:28:49.495Z,96090.15
2022-10-04T15:31:23.333Z,96090.77
2022-10-04T15:33:58.813Z,96089.55
2022-10-04T15:36:37.630Z,96089.16
2022-10-04T15:39:21.685Z,96097.22
2022-10-04T15:41:55.493Z,96104.30
2022-10-04T15:44:43.738Z,96109.06
2022-10-04T15:47:19.806Z,96114.34
2022-10-04T15:50:24.662Z,96115.14
2022-10-04T15:53:17.422Z,96116.29
2022-10-04T15:56:11.872Z,96119.23
2022-10-04T15:58:52.752Z,96126.35
2022-10-04T16:01:38.678Z,96133.13
2022-10-04T16:04:15.048Z,96135.25
2022-10-04T16:06:55.618Z,96138.38
2022-10-04T16:09:36.969Z,96140.66
2022-10-04T16:12:25.440Z,96148.31
2022-10-04T16:14:52.972Z,96151.02
2022-10-04T16:17:41.447Z,96154.60
2022-10-04T16:20:33.765Z,96158.55
2022-10-04T16:23:27.746Z,96162.38
2022-10-04T16:26:02.876Z,96166.82
2022-10-04T16:28:48.672Z,96172.13
2022-10-04T16:31:21.019Z,96184.64
2022-10-04T16:34:02.483Z,96186.95
2022-10-04T16:36:58.366Z,96189.45
2022-10-04T16:40:00.289Z,96187.51
2022-10-04T16:42:53.288Z,96189.72
2022-10-04T16:45:32.096Z,96190.15
2022-10-04T16:48:06.153Z,96192.98
2022-10-04T16:51:04.226Z,96196.42
2022-10-04T16:53:40.402Z,96197.92
2022-10-04T16:56:17.344Z,96197.70
2022-10-04T16:59:00.580Z,96204.60
2022-10-04T17:01:33.513Z,96201.64
2022-10-04T17:04:14.519Z,96205.39
2022-10-04T17:06:58.490Z,96206.15
2022-10-04T17:09:44.177Z,96213.69
2022-10-04T17:12:19.539Z,96213.52
2022-10-04T17:14:52.634Z,96209.10
2022-10-04T17:17:29.506Z,96207.44
2022-10-04T17:20:10.584Z,96211.08
2022-10-04T17:23:16.833Z,96215.66
2022-10-04T17:25:43.684Z,96219.46
2022-10-04T17:28:44.151Z,96228.64
2022-10-04T17:31:37.210Z,96237.10
2022-10-04T17:34:26.861Z,96239.29
2022-10-04T17:37:12.025Z,96244.13
2022-10-04T17:40:17.892Z,96247.10
2022-10-04T17:43:19.872Z,96247.74
2022-10-04T17:46:11.217Z,96253.91
2022-10-04T17:49:10.886Z,96257.79
2022-10-04T17:52:13.160Z,96258.77
2022-10-04T17:55:10.529Z,96264.56
2022-10-04T17:57:40.848Z,96271.16
2022-10-04T18:00:18.296Z,96276.56
2022-10-04T18:02:59.177Z,96284.48
2022-10-04T18:05:26.070Z,96283.62
2022-10-04T18:08:05.719Z,96287.40
2022-10-04T18:10:37.881Z,96286.27
2022-10-04T18:13:33.832Z,96287.45
2022-10-04T18:16:26.208Z,96282.80
2022-10-04T18:18:53.315Z,96288.48
2022-10-04T18:21:30.938Z,96292.76
2022-10-04T18:24:20.214Z,96289.21
2022-10-04T18:27:04.457Z,96290.48
2022-10-04T18:30:00.149Z,96292.52
2022-10-04T18:32:27.094Z,96296.88
2022-10-04T18:35:00.501Z,96296.52
2022-10-04T18:37:33.662Z,96302.47
2022-10-04T18:40:19.165Z,96307.90
2022-10-04T18:42:51.731Z,96307.84
2022-10-04T18:45:23.644Z,96312.61
2022-10-04T18:47:51.990Z,96319.20
2022-10-04T18:50:31.665Z,96320.49
2022-10-04T18:53:14.240Z,96322.50
2022-10-04T18:56:05.539Z,96325.48
2022-10-04T18:59:09.579Z,96321.70
2022-10-04T19:02:01.262Z,96322.27
2022-10-04T19:04:48.112Z,96323.11
2022-10-04T19:07:43.152Z,96327.47
2022-10-04T19:10:41.136Z,96336.52
2022-10-04T19:13:18.931Z,96339.39
2022-10-04T19:16:12.190Z,96337.64
2022-10-04T19:19:17.000Z,96344.48
2022-10-04T19:21:44.041Z,96344.97
2022-10-04T19:24:10.791Z,96348.50
2022-10-04T19:26:46.131Z,96346.95
2022-10-04T19:29:37.045Z,96345.80
2022-10-04T19:32:10.889Z,96345.84
2022-10-04T19:35:16.017Z,96342.52
2022-10-04T19:37:49.391Z,96342.44
2022-10-04T19:40:39.933Z,96346.02
2022-10-04T19:43:41.962Z,96350.71
2022-10-04T19:46:27.487Z,96350.15
2022-10-04T19:48:54.497Z,96355.02
2022-10-04T19:51:21.235Z,96355.84
2022-10-04T19:53:50.334Z,96358.86
2022-10-04T19:56:28.833Z,96361.84
2022-10-04T19:59:10.036Z,96361.29
2022-10-04T20:01:38.312Z,96363.14
2022-10-04T20:04:34.923Z,96366.52
2022-10-04T20:07:18.796Z,96372.06
2022-10-04T20:10:27.699Z,96368.52
2022-10-04T20:13:24.680Z,96372.58
2022-10-04T20:15:52.855Z,96376.43
2022-10-04T20:18:32.097Z,96378.17
2022-10-04T20:20:59.757Z,96382.11
2022-10-04T20:23:36.735Z,96390.35
2022-10-04T20:26:42.178Z,96388.84
2022-10-04T20:29:08.949Z,96389.98
2022-10-04T20:31:51.966Z,96394.77
2022-10-04T20:34:38.364Z,96396.50
2022-10-04T20:37:09.799Z,96403.96
2022-10-04T20:39:39.826Z,96407.77
2022-10-04T20:42:26.632Z,96416.06
2022-10-04T20:45:08.741Z,96422.41
2022-10-04T20:47:47.566Z,96427.23
2022-10-04T20:50:33.458Z,96429.59
2022-10-04T20:53:14.952Z,96429.28
2022-10-04T20:55:43.672Z,96428.23
2022-10-04T20:58:34.759Z,96427.85
2022-10-04T21:01:37.528Z,96424.99
2022-10-04T21:04:30.198Z,96426.30
2022-10-04T21:07:07.879Z,96427.95
2022-10-04T21:09:36.919Z,96434.73
2022-10-04T21:12:05.663Z,96437.55
2022-10-04T21:14:33.768Z,96435.68
2022-10-04T21:17:04.722Z,96435.33
2022-10-04T21:19:46.722Z,96435.15
2022-10-04T21:22:16.605Z,96436.90
2022-10-04T21:24:53.471Z,96442.86
2022-10-04T21:27:43.057Z,96444.23
2022-10-04T21:30:15.634Z,96449.66
2022-10-04T21:32:42.604Z,96448.94
2022-10-04T21:35:09.834Z,96448.64
2022-10-04T21:37:36.628Z,96454.95
2022-10-04T21:40:05.286Z,96457.50
2022-10-04T21:42:32.614Z,96455.05
2022-10-04T21:44:59.471Z,96454.91
2022-10-04T21:47:26.311Z,96454.92
2022-10-04T21:49:54.589Z,96453.44
2022-10-04T21:52:21.939Z,96454.30
2022-10-04T21:54:48.831Z,96460.92
2022-10-04T21:57:15.840Z,96458.69
2022-10-04T21:59:42.890Z,96459.15
2022-10-04T22:02:09.904Z,96455.11
2022-10-04T22:04:37.594Z,96458.30
2022-10-04T22:07:04.460Z,96456.83
2022-10-04T22:09:32.823Z,96459.41
2022-10-04T22:11:59.511Z,96461.23
2022-10-04T22:14:26.514Z,96464.26
2022-10-04T22:16:53.546Z,96467.02
2022-10-04T22:19:20.511Z,96474.75
2022-10-04T22:21:47.294Z,96473.70
2022-10-04T22:24:20.366Z,96478.60
2022-10-04T22:26:47.786Z,96477.85
2022-10-04T22:29:16.855Z,96477.98
2022-10-04T22:31:50.431Z,96478.61
2022-10-04T22:34:21.035Z,96480.56
2022-10-04T22:36:49.631Z,96482.29
2022-10-04T22:39:19.227Z,96477.91
2022-10-04T22:41:54.992Z,96485.88
2022-10-04T22:44:33.705Z,96486.25
2022-10-04T22:47:01.920Z,96489.48
2022-10-04T22:49:34.986Z,96490.19
2022-10-04T22:52:09.189Z,96490.89
2022-10-04T22:54:45.447Z,96491.52
2022-10-04T22:57:14.786Z,96494.66
2022-10-04T22:59:45.800Z,96493.02
2022-10-04T23:02:19.759Z,96498.98
2022-10-04T23:04:56.554Z,96502.89
2022-10-04T23:07:23.946Z,96504.70
2022-10-04T23:09:50.791Z,96503.64
2022-10-04T23:12:17.643Z,96506.89
2022-10-04T23:14:44.677Z,96509.06
2022-10-04T23:17:33.350Z,96513.58
2022-10-04T23:20:12.784Z,96516.41
2022-10-04T23:22:42.492Z,96518.45
2022-10-04T23:25:23.029Z,96519.87
2022-10-04T23:27:49.811Z,96519.27
2022-10-04T23:30:19.821Z,96519.80
2022-10-04T23:32:48.975Z,96521.27
2022-10-04T23:35:23.157Z,96521.13
2022-10-04T23:37:52.333Z,96529.14
2022-10-04T23:40:21.944Z,96528.66
2022-10-04T23:42:53.309Z,96525.20
2022-10-04T23:45:22.493Z,96531.88
2022-10-04T23:47:53.324Z,96536.61
2022-10-04T23:50:24.802Z,96542.31
2022-10-04T23:52:56.836Z,96543.10
2022-10-04T23:55:28.297Z,96543.08
2022-10-04T23:57:55.786Z,96546.51
